Time;durP1;ratioP1;P1;durP2;ratioP2;P2;SDS_P1;SDS_P2;PMS_P1;PMS_P2;Temp;Humidity;BMP_temperature;BMP_pressure;BME280_temperature;BME280_humidity;BME280_pressure;Samples;Min_cycle;Max_cycle;Signal;HPM_P1;HPM_P2
2022/04/08 00:01:23;;;;;;;;;;;11.50;92.60;;;;;;5036878;28;19932;-70
2022/04/08 00:03:50;;;;;;;;;;;11.40;92.90;;;;;;5021982;28;20012;-70
2022/04/08 00:06:17;;;;;;;;;;;11.40;92.70;;;;;;5037479;28;20863;-71
2022/04/08 00:08:45;;;;;;;;;;;11.40;92.70;;;;;;5035742;28;19935;-71
2022/04/08 00:11:12;;;;;;;;;;;11.40;92.70;;;;;;5038856;28;19932;-71
2022/04/08 00:13:39;;;;;;;;;;;11.30;92.90;;;;;;5038736;28;20342;-71
2022/04/08 00:16:07;;;;;;;;;;;11.30;93.30;;;;;;5024814;28;19929;-71
2022/04/08 00:18:34;;;;;;;;;;;11.30;93.40;;;;;;5039652;28;19928;-70
2022/04/08 00:21:01;;;;;;;;;;;11.20;93.30;;;;;;5035615;28;19933;-71
2022/04/08 00:23:28;;;;;;;;;;;11.20;93.40;;;;;;5035231;28;19928;-71
2022/04/08 00:25:55;;;;;;;;;;;11.20;93.50;;;;;;5037276;28;20371;-71
2022/04/08 00:28:22;;;;;;;;;;;11.20;93.50;;;;;;5037791;28;22070;-70
2022/04/08 00:30:49;;;;;;;;;;;11.10;94.10;;;;;;5042931;28;19929;-71
2022/04/08 00:33:16;;;;;;;;;;;11.10;94.00;;;;;;5050738;28;19929;-70
2022/04/08 00:35:43;;;;;;;;;;;11.10;94.50;;;;;;5039753;28;19961;-71
2022/04/08 00:38:10;;;;;;;;;;;11.00;94.60;;;;;;5021244;28;19925;-70
2022/04/08 00:40:37;;;;;;;;;;;11.10;94.40;;;;;;5018724;28;19936;-71
2022/04/08 00:43:10;;;;;;;;;;;11.10;94.70;;;;;;5036165;28;19925;-71
2022/04/08 00:45:37;;;;;;;;;;;11.10;94.90;;;;;;5035736;28;20221;-71
2022/04/08 00:48:07;;;;;;;;;;;11.10;94.70;;;;;;5035897;28;19948;-71
2022/04/08 00:50:39;;;;;;;;;;;11.10;94.70;;;;;;5037208;28;19935;-70
2022/04/08 00:53:06;;;;;;;;;;;11.10;95.10;;;;;;5037945;28;19943;-71
2022/04/08 00:55:34;;;;;;;;;;;11.10;95.20;;;;;;5037610;28;19929;-70
2022/04/08 00:58:02;;;;;;;;;;;11.10;95.30;;;;;;5036178;28;19925;-71
2022/04/08 01:00:36;;;;;;;;;;;11.10;95.50;;;;;;5021529;28;19929;-71
2022/04/08 01:03:04;;;;;;;;;;;11.10;95.50;;;;;;5036417;28;20369;-71
2022/04/08 01:05:31;;;;;;;;;;;11.20;95.60;;;;;;5036146;28;22079;-72
2022/04/08 01:07:58;;;;;;;;;;;11.20;95.40;;;;;;5034288;28;19933;-71
2022/04/08 01:10:25;;;;;;;;;;;11.10;95.10;;;;;;5037135;28;19987;-72
2022/04/08 01:12:52;;;;;;;;;;;11.10;95.60;;;;;;5038131;28;20521;-71
2022/04/08 01:15:20;;;;;;;;;;;11.10;95.60;;;;;;5037898;28;19929;-72
2022/04/08 01:17:47;;;;;;;;;;;11.10;95.90;;;;;;5036907;28;19940;-71
2022/04/08 01:20:14;;;;;;;;;;;11.10;95.90;;;;;;5035944;28;19928;-72
2022/04/08 01:22:41;;;;;;;;;;;11.10;96.00;;;;;;5033582;28;20442;-71
2022/04/08 01:25:09;;;;;;;;;;;11.10;96.30;;;;;;5035972;28;19933;-71
2022/04/08 01:27:36;;;;;;;;;;;11.00;96.00;;;;;;5037844;28;19933;-71
2022/04/08 01:30:05;;;;;;;;;;;11.00;96.30;;;;;;5036485;28;19974;-71
2022/04/08 01:32:32;;;;;;;;;;;11.00;96.70;;;;;;5035351;28;20391;-70
2022/04/08 01:34:59;;;;;;;;;;;11.00;96.70;;;;;;5035737;28;19935;-71
2022/04/08 01:37:26;;;;;;;;;;;11.00;96.80;;;;;;5036316;28;20023;-71
2022/04/08 01:39:53;;;;;;;;;;;10.90;97.00;;;;;;5035436;28;19983;-71
2022/04/08 01:42:24;;;;;;;;;;;11.00;97.20;;;;;;5035361;28;19929;-71
2022/04/08 01:44:52;;;;;;;;;;;10.90;97.40;;;;;;5018549;28;19937;-70
2022/04/08 01:47:19;;;;;;;;;;;10.90;97.30;;;;;;5035133;28;20002;-71
2022/04/08 01:49:46;;;;;;;;;;;10.90;97.40;;;;;;5034030;28;19978;-71
2022/04/08 01:52:13;;;;;;;;;;;10.90;97.40;;;;;;5018967;28;20015;-71
2022/04/08 01:54:40;;;;;;;;;;;10.80;97.70;;;;;;5023901;28;19928;-70
2022/04/08 01:57:07;;;;;;;;;;;10.80;98.30;;;;;;5036791;28;19937;-71
2022/04/08 01:59:34;;;;;;;;;;;10.70;98.50;;;;;;5043097;28;19939;-71
2022/04/08 02:02:02;;;;;;;;;;;10.70;98.90;;;;;;5032945;28;19990;-70
2022/04/08 02:04:29;;;;;;;;;;;10.80;98.60;;;;;;5036541;28;20876;-70
2022/04/08 02:06:56;;;;;;;;;;;10.90;98.70;;;;;;5032619;28;19932;-71
2022/04/08 02:09:23;;;;;;;;;;;10.80;98.80;;;;;;5033763;28;19929;-70
2022/04/08 02:11:50;;;;;;;;;;;10.90;99.20;;;;;;5032804;28;19929;-70
2022/04/08 02:14:18;;;;;;;;;;;10.80;99.10;;;;;;5035544;28;20318;-70
2022/04/08 02:16:44;;;;;;;;;;;10.80;99.30;;;;;;5033488;28;19932;-71
2022/04/08 02:19:11;;;;;;;;;;;10.80;99.10;;;;;;5034748;28;19925;-71
2022/04/08 02:21:38;;;;;;;;;;;10.80;99.30;;;;;;5031804;28;19933;-71
2022/04/08 02:24:06;;;;;;;;;;;10.80;99.20;;;;;;5035755;28;20028;-71
2022/04/08 02:26:33;;;;;;;;;;;10.70;99.40;;;;;;5034019;28;20340;-71
2022/04/08 02:29:00;;;;;;;;;;;10.70;99.60;;;;;;5035981;28;20050;-71
2022/04/08 02:31:27;;;;;;;;;;;10.70;99.70;;;;;;5033106;28;19932;-71
2022/04/08 02:33:54;;;;;;;;;;;10.70;99.70;;;;;;5034619;28;19933;-72
2022/04/08 02:36:21;;;;;;;;;;;10.60;99.60;;;;;;5020881;28;19933;-71
2022/04/08 02:38:48;;;;;;;;;;;10.60;99.90;;;;;;5031128;28;20418;-70
2022/04/08 02:41:14;;;;;;;;;;;10.60;99.90;;;;;;5034783;28;19939;-71
2022/04/08 02:43:41;;;;;;;;;;;10.60;99.90;;;;;;5035896;28;19929;-71
2022/04/08 02:46:08;;;;;;;;;;;10.60;99.90;;;;;;5046867;28;19956;-70
2022/04/08 02:48:35;;;;;;;;;;;10.60;99.90;;;;;;5035490;28;19932;-70
2022/04/08 02:51:02;;;;;;;;;;;10.60;99.80;;;;;;5036472;28;19929;-71
2022/04/08 02:53:29;;;;;;;;;;;10.60;99.80;;;;;;5031494;28;19986;-71
2022/04/08 02:55:56;;;;;;;;;;;10.60;99.70;;;;;;5033340;28;19929;-70
2022/04/08 02:58:23;;;;;;;;;;;10.50;99.80;;;;;;5032857;28;19925;-70
2022/04/08 03:00:50;;;;;;;;;;;10.50;99.80;;;;;;5034437;28;20389;-71
2022/04/08 03:03:17;;;;;;;;;;;10.40;99.90;;;;;;5033422;28;19929;-71
2022/04/08 03:05:45;;;;;;;;;;;10.40;99.90;;;;;;5034377;28;19929;-70
2022/04/08 03:08:11;;;;;;;;;;;10.40;99.90;;;;;;5031886;28;20358;-70
2022/04/08 03:10:38;;;;;;;;;;;10.30;99.90;;;;;;5035342;28;19933;-70
2022/04/08 03:13:05;;;;;;;;;;;10.30;99.90;;;;;;5043488;28;19956;-70
2022/04/08 03:15:32;;;;;;;;;;;10.30;99.90;;;;;;5037114;28;20014;-70
2022/04/08 03:17:59;;;;;;;;;;;10.40;99.90;;;;;;5055133;28;19933;-71
2022/04/08 03:20:26;;;;;;;;;;;10.30;99.90;;;;;;5039452;28;19936;-71
2022/04/08 03:22:53;;;;;;;;;;;10.40;99.90;;;;;;5037779;28;22163;-71
2022/04/08 03:25:20;;;;;;;;;;;10.40;99.90;;;;;;5041778;28;19929;-70
2022/04/08 03:27:47;;;;;;;;;;;10.40;99.90;;;;;;5039810;28;20177;-71
2022/04/08 03:30:14;;;;;;;;;;;10.40;99.90;;;;;;5038748;28;19951;-71
2022/04/08 03:32:41;;;;;;;;;;;10.50;99.90;;;;;;5042058;28;20318;-71
2022/04/08 03:35:08;;;;;;;;;;;10.40;99.90;;;;;;5034716;28;20007;-71
2022/04/08 03:37:35;;;;;;;;;;;10.40;99.90;;;;;;5039660;28;19928;-71
2022/04/08 03:40:02;;;;;;;;;;;10.40;99.90;;;;;;5018301;28;20338;-71
2022/04/08 03:42:29;;;;;;;;;;;10.50;99.90;;;;;;5040335;28;20051;-70
2022/04/08 03:44:56;;;;;;;;;;;10.50;99.90;;;;;;5036780;28;19933;-70
2022/04/08 03:47:22;;;;;;;;;;;10.50;99.90;;;;;;5038910;28;20046;-71
2022/04/08 03:49:49;;;;;;;;;;;10.50;99.90;;;;;;5025277;28;19948;-71
2022/04/08 03:52:16;;;;;;;;;;;10.40;99.90;;;;;;5034803;28;19968;-70
2022/04/08 03:54:43;;;;;;;;;;;10.30;99.90;;;;;;5036462;28;19929;-70
2022/04/08 03:57:10;;;;;;;;;;;10.30;99.90;;;;;;5040729;28;20069;-70
2022/04/08 03:59:40;;;;;;;;;;;10.40;99.90;;;;;;5040144;28;20019;-70
2022/04/08 04:02:07;;;;;;;;;;;10.40;99.90;;;;;;5035634;28;19979;-70
2022/04/08 04:04:35;;;;;;;;;;;10.50;99.90;;;;;;5037318;28;20312;-71
2022/04/08 04:07:02;;;;;;;;;;;10.50;99.80;;;;;;5034779;28;20372;-71
2022/04/08 04:09:29;;;;;;;;;;;10.50;99.90;;;;;;5034407;28;19933;-71
2022/04/08 04:11:56;;;;;;;;;;;10.60;99.50;;;;;;5022209;28;19932;-70
2022/04/08 04:14:22;;;;;;;;;;;11.00;98.30;;;;;;5038033;28;19959;-71
2022/04/08 04:16:50;;;;;;;;;;;11.20;97.90;;;;;;5037435;28;19940;-70
2022/04/08 04:19:17;;;;;;;;;;;11.60;97.00;;;;;;5039944;28;19971;-69
2022/04/08 04:21:45;;;;;;;;;;;11.70;95.90;;;;;;5036462;28;19928;-70
2022/04/08 04:24:12;;;;;;;;;;;11.80;95.90;;;;;;5036766;28;19929;-70
2022/04/08 04:26:39;;;;;;;;;;;11.70;95.30;;;;;;5034949;28;20399;-70
2022/04/08 04:29:06;;;;;;;;;;;11.70;95.00;;;;;;5036922;28;19929;-70
2022/04/08 04:31:33;;;;;;;;;;;11.80;93.40;;;;;;5023437;28;19940;-73
2022/04/08 04:34:00;;;;;;;;;;;11.90;91.60;;;;;;5036242;28;20595;-69
2022/04/08 04:36:27;;;;;;;;;;;12.10;89.70;;;;;;5037128;28;20452;-70
2022/04/08 04:38:53;;;;;;;;;;;12.00;90.00;;;;;;5047525;28;20561;-70
2022/04/08 04:41:21;;;;;;;;;;;11.90;89.40;;;;;;5035716;28;19932;-69
2022/04/08 04:43:47;;;;;;;;;;;12.00;85.30;;;;;;5034959;28;19979;-69
2022/04/08 04:46:14;;;;;;;;;;;12.20;81.00;;;;;;5051335;28;19925;-71
2022/04/08 04:48:42;;;;;;;;;;;12.10;81.80;;;;;;5037013;28;20559;-71
2022/04/08 04:51:11;;;;;;;;;;;12.00;82.50;;;;;;5037481;28;19933;-70
2022/04/08 04:53:38;;;;;;;;;;;12.10;78.80;;;;;;5038404;28;19948;-71
2022/04/08 04:56:05;;;;;;;;;;;12.10;79.20;;;;;;5053505;28;20010;-71
2022/04/08 04:58:32;;;;;;;;;;;12.10;78.10;;;;;;5036113;28;19929;-72
2022/04/08 05:00:59;;;;;;;;;;;12.20;73.90;;;;;;5018880;28;20007;-69
2022/04/08 05:03:26;;;;;;;;;;;12.30;73.60;;;;;;4994184;28;19940;-72
2022/04/08 05:05:53;;;;;;;;;;;12.30;70.60;;;;;;4992307;28;19937;-71
2022/04/08 05:08:23;;;;;;;;;;;12.40;70.50;;;;;;4992698;28;19933;-73
2022/04/08 05:10:50;;;;;;;;;;;12.30;70.30;;;;;;4996595;28;23394;-70
2022/04/08 05:13:16;;;;;;;;;;;12.50;69.00;;;;;;4997939;28;19937;-69
2022/04/08 05:15:45;;;;;;;;;;;12.50;69.00;;;;;;4990740;28;19955;-71
2022/04/08 05:18:12;;;;;;;;;;;12.40;70.20;;;;;;4990609;28;20070;-70
2022/04/08 05:20:39;;;;;;;;;;;12.40;69.80;;;;;;5010694;28;19933;-70
2022/04/08 05:23:06;;;;;;;;;;;12.40;68.00;;;;;;5009623;28;20019;-72
2022/04/08 05:25:33;;;;;;;;;;;12.30;67.90;;;;;;4994133;28;19933;-70
2022/04/08 05:27:59;;;;;;;;;;;12.30;65.40;;;;;;4990985;28;19985;-70
2022/04/08 05:30:26;;;;;;;;;;;12.40;64.80;;;;;;4989939;28;19939;-71
2022/04/08 05:32:55;;;;;;;;;;;12.30;63.50;;;;;;5010160;28;20010;-71
2022/04/08 05:35:22;;;;;;;;;;;12.40;63.30;;;;;;4989630;28;22342;-71
2022/04/08 05:37:49;;;;;;;;;;;12.40;62.00;;;;;;5007337;28;20715;-71
2022/04/08 05:40:17;;;;;;;;;;;12.50;63.10;;;;;;4994454;28;19937;-71
2022/04/08 05:42:45;;;;;;;;;;;12.40;63.40;;;;;;4994331;28;20021;-71
2022/04/08 05:45:14;;;;;;;;;;;12.50;62.80;;;;;;4992656;28;19940;-70
2022/04/08 05:47:41;;;;;;;;;;;12.60;62.00;;;;;;5007712;28;19933;-71
2022/04/08 05:50:09;;;;;;;;;;;12.50;61.20;;;;;;5010162;28;19940;-71
2022/04/08 05:52:36;;;;;;;;;;;12.50;59.50;;;;;;4991848;28;19937;-71
2022/04/08 05:55:03;;;;;;;;;;;12.60;58.50;;;;;;4993918;28;19933;-72
2022/04/08 05:57:34;;;;;;;;;;;12.50;58.70;;;;;;4991312;28;21863;-71
2022/04/08 06:00:03;;;;;;;;;;;12.60;56.80;;;;;;5011564;28;19983;-71
2022/04/08 06:02:31;;;;;;;;;;;12.50;57.70;;;;;;4988318;28;20694;-70
2022/04/08 06:04:58;;;;;;;;;;;12.50;58.00;;;;;;4993272;28;19933;-70
2022/04/08 06:07:25;;;;;;;;;;;12.50;57.20;;;;;;4990871;28;20497;-70
2022/04/08 06:09:52;;;;;;;;;;;12.60;56.40;;;;;;4993163;28;19955;-70
2022/04/08 06:12:20;;;;;;;;;;;12.60;56.20;;;;;;4994527;28;19933;-71
2022/04/08 06:14:46;;;;;;;;;;;12.60;57.60;;;;;;4993751;28;20025;-71
2022/04/08 06:17:13;;;;;;;;;;;12.60;58.10;;;;;;4992511;28;20593;-71
2022/04/08 06:19:40;;;;;;;;;;;12.60;58.90;;;;;;4992202;28;20072;-70
2022/04/08 06:22:08;;;;;;;;;;;12.60;57.10;;;;;;4994616;28;20411;-72
2022/04/08 06:24:34;;;;;;;;;;;12.50;57.70;;;;;;4991042;28;22502;-72
2022/04/08 06:27:01;;;;;;;;;;;12.50;58.10;;;;;;4991812;28;19933;-71
2022/04/08 06:29:28;;;;;;;;;;;12.50;58.70;;;;;;4994873;28;19940;-71
2022/04/08 06:31:55;;;;;;;;;;;12.40;59.50;;;;;;5006470;28;19940;-71
2022/04/08 06:34:22;;;;;;;;;;;12.40;58.60;;;;;;5008205;28;22380;-71
2022/04/08 06:36:49;;;;;;;;;;;12.40;59.60;;;;;;4992352;28;19933;-72
2022/04/08 06:39:16;;;;;;;;;;;12.30;63.10;;;;;;4997111;28;19933;-71
2022/04/08 06:41:44;;;;;;;;;;;12.30;61.50;;;;;;4996929;28;22355;-72
2022/04/08 06:44:11;;;;;;;;;;;12.20;63.00;;;;;;4993386;28;19933;-72
2022/04/08 06:46:38;;;;;;;;;;;12.20;63.30;;;;;;4992744;28;19947;-71
2022/04/08 06:49:05;;;;;;;;;;;12.30;62.60;;;;;;4996336;28;20390;-71
2022/04/08 06:51:32;;;;;;;;;;;12.40;59.30;;;;;;5001831;28;20990;-71
2022/04/08 06:54:00;;;;;;;;;;;12.50;60.30;;;;;;4994268;28;19932;-71
2022/04/08 06:56:28;;;;;;;;;;;12.70;58.50;;;;;;4995449;28;20067;-71
2022/04/08 06:58:55;;;;;;;;;;;12.80;57.80;;;;;;4997306;28;20020;-72
2022/04/08 07:01:24;;;;;;;;;;;12.90;58.30;;;;;;4994949;28;20031;-71
2022/04/08 07:03:51;;;;;;;;;;;13.40;57.00;;;;;;4995427;28;20011;-72
2022/04/08 07:06:18;;;;;;;;;;;13.80;53.80;;;;;;5002056;28;20933;-70
2022/04/08 07:08:45;;;;;;;;;;;13.70;53.60;;;;;;4994578;28;20161;-72
2022/04/08 07:11:11;;;;;;;;;;;13.50;55.10;;;;;;4998712;28;22313;-71
2022/04/08 07:13:41;;;;;;;;;;;13.50;54.00;;;;;;4995330;28;19933;-71
2022/04/08 07:16:09;;;;;;;;;;;13.40;52.70;;;;;;4995280;28;20030;-70
2022/04/08 07:18:36;;;;;;;;;;;13.30;52.70;;;;;;4993379;28;19937;-71
2022/04/08 07:21:02;;;;;;;;;;;13.40;52.10;;;;;;4995167;28;19933;-71
2022/04/08 07:23:29;;;;;;;;;;;13.60;53.10;;;;;;4994116;28;19933;-70
2022/04/08 07:25:56;;;;;;;;;;;13.70;52.20;;;;;;4985116;28;19999;-71
2022/04/08 07:28:23;;;;;;;;;;;13.90;52.30;;;;;;4975670;28;22329;-71
2022/04/08 07:30:51;;;;;;;;;;;14.30;52.50;;;;;;4995116;28;19990;-71
2022/04/08 07:33:18;;;;;;;;;;;14.60;49.10;;;;;;5007015;28;20153;-71
2022/04/08 07:35:45;;;;;;;;;;;14.90;49.10;;;;;;4999700;28;19970;-72
2022/04/08 07:38:15;;;;;;;;;;;14.90;49.30;;;;;;4993633;28;19933;-73
2022/04/08 07:40:43;;;;;;;;;;;14.70;49.60;;;;;;4999292;28;20387;-72
2022/04/08 07:43:10;;;;;;;;;;;14.60;49.40;;;;;;4992783;28;19940;-73
2022/04/08 07:45:37;;;;;;;;;;;15.00;48.60;;;;;;4979592;28;19956;-71
2022/04/08 07:48:04;;;;;;;;;;;15.20;48.80;;;;;;4993748;28;19933;-73
2022/04/08 07:50:32;;;;;;;;;;;15.30;48.40;;;;;;4999221;28;20168;-74
2022/04/08 07:53:00;;;;;;;;;;;15.10;48.30;;;;;;5006022;28;19933;-71
2022/04/08 07:55:27;;;;;;;;;;;14.80;48.40;;;;;;4986015;28;19933;-71
2022/04/08 07:57:55;;;;;;;;;;;14.70;49.80;;;;;;5000710;28;20075;-71
2022/04/08 08:00:25;;;;;;;;;;;14.50;49.70;;;;;;4991634;28;19937;-71
2022/04/08 08:02:52;;;;;;;;;;;14.40;49.80;;;;;;5004364;28;19933;-71
2022/04/08 08:05:22;;;;;;;;;;;14.40;49.90;;;;;;5000795;28;19937;-71
2022/04/08 08:07:51;;;;;;;;;;;14.40;49.70;;;;;;4994093;28;19932;-72
2022/04/08 08:10:22;;;;;;;;;;;14.50;50.40;;;;;;5011431;28;19932;-72
2022/04/08 08:12:51;;;;;;;;;;;15.00;50.10;;;;;;4985760;28;22505;-71
2022/04/08 08:15:18;;;;;;;;;;;15.70;47.30;;;;;;4997321;28;19940;-73
2022/04/08 08:17:46;;;;;;;;;;;15.70;46.50;;;;;;5010661;28;19969;-71
2022/04/08 08:20:14;;;;;;;;;;;15.90;45.80;;;;;;5008569;28;19997;-70
2022/04/08 08:22:41;;;;;;;;;;;16.20;45.40;;;;;;4977790;28;19932;-70
2022/04/08 08:25:09;;;;;;;;;;;16.30;46.50;;;;;;4992697;28;20032;-70
2022/04/08 08:27:43;;;;;;;;;;;16.40;43.30;;;;;;4993128;28;20014;-70
2022/04/08 08:30:10;;;;;;;;;;;16.00;43.10;;;;;;4978327;28;22413;-69
2022/04/08 08:32:39;;;;;;;;;;;16.10;41.50;;;;;;4991360;28;22307;-70
2022/04/08 08:35:10;;;;;;;;;;;16.30;41.20;;;;;;4976528;28;19974;-69
2022/04/08 08:37:39;;;;;;;;;;;16.20;40.70;;;;;;4990684;28;19933;-70
2022/04/08 08:40:07;;;;;;;;;;;16.20;41.10;;;;;;4990470;28;19944;-72
2022/04/08 08:42:36;;;;;;;;;;;16.20;41.50;;;;;;4996458;28;19936;-75
2022/04/08 08:45:03;;;;;;;;;;;16.30;40.90;;;;;;4994920;28;19995;-71
2022/04/08 08:47:31;;;;;;;;;;;16.30;41.40;;;;;;4995764;28;20000;-70
2022/04/08 08:49:58;;;;;;;;;;;16.00;41.10;;;;;;4989546;28;19940;-70
2022/04/08 08:52:25;;;;;;;;;;;16.00;42.00;;;;;;4981645;28;19933;-71
2022/04/08 08:54:54;;;;;;;;;;;15.90;41.80;;;;;;4979540;28;20513;-72
2022/04/08 08:57:22;;;;;;;;;;;16.20;41.10;;;;;;4995500;28;22463;-73
2022/04/08 08:59:52;;;;;;;;;;;16.30;41.10;;;;;;4993387;28;22358;-71
2022/04/08 09:02:21;;;;;;;;;;;16.60;41.90;;;;;;4990654;28;19933;-71
2022/04/08 09:04:51;;;;;;;;;;;17.00;41.00;;;;;;4998027;28;19933;-72
2022/04/08 09:07:21;;;;;;;;;;;17.00;39.60;;;;;;5004685;28;19933;-74
2022/04/08 09:09:50;;;;;;;;;;;17.30;42.90;;;;;;4993771;28;22747;-71
2022/04/08 09:12:17;;;;;;;;;;;17.10;40.00;;;;;;5003169;28;19935;-72
2022/04/08 09:14:49;;;;;;;;;;;16.90;40.10;;;;;;4993280;28;20398;-70
2022/04/08 09:17:18;;;;;;;;;;;16.70;41.70;;;;;;4996408;28;20030;-73
2022/04/08 09:19:52;;;;;;;;;;;16.80;41.50;;;;;;4996966;28;19932;-71
2022/04/08 09:22:20;;;;;;;;;;;16.80;43.70;;;;;;4977140;28;23278;-72
2022/04/08 09:24:48;;;;;;;;;;;16.60;43.20;;;;;;5002728;28;19932;-72
2022/04/08 09:27:15;;;;;;;;;;;16.60;42.80;;;;;;4998731;28;19933;-71
2022/04/08 09:29:44;;;;;;;;;;;16.60;43.40;;;;;;4990118;28;20066;-74
2022/04/08 09:32:31;;;;;;;;;;;16.90;42.80;;;;;;4992600;28;19939;-71
2022/04/08 09:34:58;;;;;;;;;;;17.20;43.20;;;;;;4995853;28;20619;-72
2022/04/08 09:37:25;;;;;;;;;;;17.50;42.20;;;;;;5012319;28;22500;-74
2022/04/08 09:39:52;;;;;;;;;;;17.20;42.50;;;;;;4996140;28;20958;-75
2022/04/08 09:42:19;;;;;;;;;;;17.10;44.30;;;;;;4992079;28;20066;-71
2022/04/08 09:44:47;;;;;;;;;;;17.20;42.60;;;;;;4992915;28;19933;-70
2022/04/08 09:47:14;;;;;;;;;;;17.20;42.10;;;;;;4992215;28;19933;-72
2022/04/08 09:49:41;;;;;;;;;;;17.20;42.80;;;;;;4979158;28;20314;-70
2022/04/08 09:52:09;;;;;;;;;;;17.70;43.30;;;;;;4994971;28;19933;-68
2022/04/08 09:54:39;;;;;;;;;;;17.70;41.10;;;;;;4998375;28;19932;-73
2022/04/08 09:57:09;;;;;;;;;;;17.60;40.40;;;;;;4996059;28;19940;-74
2022/04/08 09:59:36;;;;;;;;;;;17.50;42.30;;;;;;4991456;28;19932;-73
2022/04/08 10:02:23;;;;;;;;;;;17.70;40.10;;;;;;4993105;28;20004;-71
2022/04/08 10:05:02;;;;;;;;;;;17.40;40.70;;;;;;4998546;28;19941;-69
2022/04/08 10:07:29;;;;;;;;;;;17.10;40.70;;;;;;4987345;28;19986;-71
2022/04/08 10:09:59;;;;;;;;;;;17.30;41.40;;;;;;4993533;28;19932;-69
2022/04/08 10:12:40;;;;;;;;;;;17.40;41.10;;;;;;4989460;28;19933;-71
2022/04/08 10:15:09;;;;;;;;;;;17.50;41.80;;;;;;4990887;28;20015;-73
2022/04/08 10:17:36;;;;;;;;;;;17.60;41.20;;;;;;4991143;28;19941;-73
2022/04/08 10:20:16;;;;;;;;;;;17.70;41.00;;;;;;5006798;28;19934;-71
2022/04/08 10:22:43;;;;;;;;;;;17.70;40.40;;;;;;4993752;28;20403;-73
2022/04/08 10:25:17;;;;;;;;;;;17.70;41.40;;;;;;4995216;28;20022;-72
2022/04/08 10:27:44;;;;;;;;;;;17.70;41.50;;;;;;4994419;28;20387;-73
2022/04/08 10:30:20;;;;;;;;;;;17.60;41.00;;;;;;5000694;28;19933;-72
2022/04/08 10:32:57;;;;;;;;;;;17.60;41.10;;;;;;4997017;28;20973;-73
2022/04/08 10:35:24;;;;;;;;;;;17.50;41.80;;;;;;4995443;28;20046;-75
2022/04/08 10:37:58;;;;;;;;;;;17.70;42.10;;;;;;4993266;28;19933;-72
2022/04/08 10:40:29;;;;;;;;;;;17.70;41.40;;;;;;4999163;28;19933;-71
2022/04/08 10:42:57;;;;;;;;;;;17.70;42.40;;;;;;4992227;28;19940;-75
2022/04/08 10:45:24;;;;;;;;;;;17.60;41.90;;;;;;4994302;28;19933;-74
2022/04/08 10:47:51;;;;;;;;;;;17.80;42.30;;;;;;4999250;28;19941;-70
2022/04/08 10:50:25;;;;;;;;;;;17.60;41.50;;;;;;5011719;28;19933;-73
2022/04/08 10:53:03;;;;;;;;;;;17.20;41.70;;;;;;4981209;28;19937;-73
2022/04/08 10:55:30;;;;;;;;;;;17.10;41.70;;;;;;5011271;28;22146;-70
2022/04/08 10:57:58;;;;;;;;;;;17.00;42.90;;;;;;4994478;28;20047;-74
2022/04/08 11:00:25;;;;;;;;;;;17.10;42.50;;;;;;4990885;28;20114;-70
2022/04/08 11:02:53;;;;;;;;;;;17.00;42.00;;;;;;4990376;28;19940;-70
2022/04/08 11:05:20;;;;;;;;;;;17.10;42.10;;;;;;4984252;28;19937;-68
2022/04/08 11:07:50;;;;;;;;;;;16.90;41.30;;;;;;4995219;28;20063;-70
2022/04/08 11:10:19;;;;;;;;;;;17.10;41.60;;;;;;4991414;28;19933;-70
2022/04/08 11:12:50;;;;;;;;;;;17.30;41.60;;;;;;4990272;28;20028;-72
2022/04/08 11:15:18;;;;;;;;;;;17.40;41.30;;;;;;4990207;28;20639;-73
2022/04/08 11:17:46;;;;;;;;;;;17.30;41.70;;;;;;4988412;28;19939;-72
2022/04/08 11:20:13;;;;;;;;;;;17.20;41.50;;;;;;5005438;28;20041;-72
2022/04/08 11:22:41;;;;;;;;;;;17.10;42.90;;;;;;4982276;28;19933;-73
2022/04/08 11:25:09;;;;;;;;;;;17.00;42.60;;;;;;4998372;28;20523;-73
2022/04/08 11:27:41;;;;;;;;;;;17.00;41.40;;;;;;4998527;28;19932;-71
2022/04/08 11:30:08;;;;;;;;;;;16.70;40.90;;;;;;5005480;28;19937;-71
2022/04/08 11:32:39;;;;;;;;;;;16.70;42.40;;;;;;4976658;28;19940;-71
2022/04/08 11:35:13;;;;;;;;;;;16.60;42.30;;;;;;4995163;28;22284;-72
2022/04/08 11:37:40;;;;;;;;;;;16.70;42.70;;;;;;4995240;28;19933;-71
2022/04/08 11:40:07;;;;;;;;;;;16.50;41.90;;;;;;5010843;28;19940;-72
2022/04/08 11:42:34;;;;;;;;;;;16.30;42.30;;;;;;5008047;28;20019;-71
2022/04/08 11:45:03;;;;;;;;;;;16.20;43.20;;;;;;4992756;28;19932;-71
2022/04/08 11:47:31;;;;;;;;;;;16.10;44.20;;;;;;4992505;28;20701;-73
2022/04/08 11:50:08;;;;;;;;;;;16.10;45.30;;;;;;4990997;28;19933;-72
2022/04/08 11:52:37;;;;;;;;;;;16.20;45.60;;;;;;4994302;28;22358;-71
2022/04/08 11:55:09;;;;;;;;;;;16.30;45.10;;;;;;4978778;28;19933;-70
2022/04/08 11:57:44;;;;;;;;;;;16.50;44.60;;;;;;4990436;28;22332;-71
2022/04/08 12:00:12;;;;;;;;;;;16.90;45.40;;;;;;4991215;28;21412;-71
2022/04/08 12:02:39;;;;;;;;;;;17.00;45.20;;;;;;4993896;28;19940;-72
2022/04/08 12:05:07;;;;;;;;;;;17.20;45.20;;;;;;4995558;28;19937;-72
2022/04/08 12:07:54;;;;;;;;;;;17.20;45.80;;;;;;4991551;28;20068;-72
2022/04/08 12:10:22;;;;;;;;;;;17.00;44.60;;;;;;4991053;28;19932;-76
2022/04/08 12:12:50;;;;;;;;;;;17.00;44.90;;;;;;4995172;28;20723;-70
2022/04/08 12:15:20;;;;;;;;;;;16.90;44.90;;;;;;4980114;28;19980;-71
2022/04/08 12:17:47;;;;;;;;;;;17.00;44.80;;;;;;4989181;28;20088;-71
2022/04/08 12:20:15;;;;;;;;;;;17.10;45.10;;;;;;4988749;28;19944;-71
2022/04/08 12:22:44;;;;;;;;;;;17.20;45.30;;;;;;4973435;28;19939;-71
2022/04/08 12:25:13;;;;;;;;;;;17.10;45.50;;;;;;4989889;28;20635;-72
2022/04/08 12:27:40;;;;;;;;;;;17.00;45.40;;;;;;4988188;28;20682;-71
2022/04/08 12:30:34;;;;;;;;;;;17.00;45.80;;;;;;5002215;28;22349;-71
2022/04/08 12:33:01;;;;;;;;;;;17.20;46.20;;;;;;4989392;28;20070;-70
2022/04/08 12:35:28;;;;;;;;;;;16.90;46.00;;;;;;4990932;28;23429;-72
2022/04/08 12:37:55;;;;;;;;;;;17.00;47.60;;;;;;4987262;28;19940;-70
2022/04/08 12:40:22;;;;;;;;;;;16.90;47.00;;;;;;4987685;28;19933;-71
2022/04/08 12:42:49;;;;;;;;;;;16.90;48.10;;;;;;4992285;28;20015;-71
2022/04/08 12:45:16;;;;;;;;;;;16.90;47.50;;;;;;4993439;28;19967;-72
2022/04/08 12:47:43;;;;;;;;;;;16.90;47.90;;;;;;4999487;28;19984;-73
2022/04/08 12:50:13;;;;;;;;;;;16.90;48.60;;;;;;5003233;28;19936;-70
2022/04/08 12:52:41;;;;;;;;;;;17.10;48.90;;;;;;4994336;28;20719;-71
2022/04/08 12:55:13;;;;;;;;;;;17.10;48.50;;;;;;4990698;28;19941;-70
2022/04/08 12:57:41;;;;;;;;;;;17.10;48.00;;;;;;4986839;28;19933;-71
2022/04/08 13:00:24;;;;;;;;;;;17.20;48.60;;;;;;4998209;28;20033;-72
2022/04/08 13:02:52;;;;;;;;;;;17.20;48.90;;;;;;4990512;28;19939;-70
2022/04/08 13:05:20;;;;;;;;;;;17.40;48.60;;;;;;5006938;28;20067;-70
2022/04/08 13:07:47;;;;;;;;;;;17.20;47.90;;;;;;4993455;28;19933;-72
2022/04/08 13:10:14;;;;;;;;;;;17.00;48.10;;;;;;4998552;28;20000;-72
2022/04/08 13:12:41;;;;;;;;;;;17.20;48.40;;;;;;4991350;28;22379;-72
2022/04/08 13:15:08;;;;;;;;;;;17.10;49.30;;;;;;4990772;28;19940;-71
2022/04/08 13:17:36;;;;;;;;;;;17.40;51.00;;;;;;4992016;28;20449;-71
2022/04/08 13:20:04;;;;;;;;;;;17.60;49.60;;;;;;4993043;28;19940;-71
2022/04/08 13:22:31;;;;;;;;;;;17.70;50.50;;;;;;4989599;28;19933;-68
2022/04/08 13:24:58;;;;;;;;;;;17.80;49.80;;;;;;4996004;28;19940;-72
2022/04/08 13:27:24;;;;;;;;;;;18.00;48.70;;;;;;5004617;28;21805;-69
2022/04/08 13:29:51;;;;;;;;;;;18.20;49.10;;;;;;4986792;28;19937;-69
2022/04/08 13:32:18;;;;;;;;;;;17.80;48.20;;;;;;5003098;28;20014;-68
2022/04/08 13:34:46;;;;;;;;;;;17.60;50.20;;;;;;4988142;28;19970;-69
2022/04/08 13:37:14;;;;;;;;;;;17.40;50.10;;;;;;4989623;28;20704;-70
2022/04/08 13:39:42;;;;;;;;;;;17.40;51.50;;;;;;4987506;28;20026;-70
2022/04/08 13:42:09;;;;;;;;;;;17.20;50.20;;;;;;4987820;28;22148;-70
2022/04/08 13:44:36;;;;;;;;;;;17.30;51.80;;;;;;4989821;28;20415;-69
2022/04/08 13:47:04;;;;;;;;;;;17.40;51.00;;;;;;4989898;28;19933;-69
2022/04/08 13:49:31;;;;;;;;;;;17.30;52.10;;;;;;4984400;28;19941;-70
2022/04/08 13:51:58;;;;;;;;;;;17.30;52.10;;;;;;4986743;28;20779;-69
2022/04/08 13:54:26;;;;;;;;;;;17.20;51.80;;;;;;4986342;28;19995;-69
2022/04/08 13:56:53;;;;;;;;;;;17.30;51.80;;;;;;4987864;28;19928;-70
2022/04/08 13:59:20;;;;;;;;;;;17.20;52.90;;;;;;4995736;28;20059;-73
2022/04/08 14:01:47;;;;;;;;;;;17.20;54.00;;;;;;4989413;28;19940;-69
2022/04/08 14:04:15;;;;;;;;;;;17.10;53.50;;;;;;4993791;28;20847;-69
2022/04/08 14:06:42;;;;;;;;;;;16.80;54.00;;;;;;4988594;28;19933;-68
2022/04/08 14:09:09;;;;;;;;;;;16.60;55.30;;;;;;4986487;28;20134;-70
2022/04/08 14:11:36;;;;;;;;;;;16.70;56.10;;;;;;4988434;28;22164;-72
2022/04/08 14:14:03;;;;;;;;;;;16.70;54.70;;;;;;4987959;28;19933;-70
2022/04/08 14:16:32;;;;;;;;;;;16.60;55.10;;;;;;4988452;28;20520;-70
2022/04/08 14:19:00;;;;;;;;;;;16.70;56.30;;;;;;4989315;28;20068;-69
2022/04/08 14:21:27;;;;;;;;;;;16.60;57.00;;;;;;4988445;28;20034;-69